sensor_id;sensor_type;location;lat;lon;timestamp;P1;durP1;ratioP1;P2;durP2;ratioP2
79646;SDS011;69119;41.718;21.786;2023-06-19T00:00:56;20.08;;;14.57;;
79646;SDS011;69119;41.718;21.786;2023-06-19T00:03:22;19.75;;;14.80;;
79646;SDS011;69119;41.718;21.786;2023-06-19T00:05:48;21.52;;;14.35;;
79646;SDS011;69119;41.718;21.786;2023-06-19T00:08:14;20.35;;;14.48;;
79646;SDS011;69119;41.718;21.786;2023-06-19T00:10:40;21.58;;;15.10;;
79646;SDS011;69119;41.718;21.786;2023-06-19T00:13:06;19.15;;;14.05;;
79646;SDS011;69119;41.718;21.786;2023-06-19T00:15:32;19.65;;;14.57;;
79646;SDS011;69119;41.718;21.786;2023-06-19T00:17:58;18.85;;;14.68;;
79646;SDS011;69119;41.718;21.786;2023-06-19T00:20:24;19.27;;;15.55;;
79646;SDS011;69119;41.718;21.786;2023-06-19T00:22:50;21.63;;;14.88;;
79646;SDS011;69119;41.718;21.786;2023-06-19T00:25:19;19.10;;;13.77;;
79646;SDS011;69119;41.718;21.786;2023-06-19T00:27:46;21.00;;;14.77;;
79646;SDS011;69119;41.718;21.786;2023-06-19T00:30:13;20.52;;;16.65;;
79646;SDS011;69119;41.718;21.786;2023-06-19T00:32:39;19.17;;;14.55;;
79646;SDS011;69119;41.718;21.786;2023-06-19T00:35:15;18.83;;;15.07;;
79646;SDS011;69119;41.718;21.786;2023-06-19T00:37:43;22.08;;;14.35;;
79646;SDS011;69119;41.718;21.786;2023-06-19T00:42:53;19.67;;;13.98;;
79646;SDS011;69119;41.718;21.786;2023-06-19T00:45:19;19.25;;;14.77;;
79646;SDS011;69119;41.718;21.786;2023-06-19T00:47:45;21.02;;;14.68;;
79646;SDS011;69119;41.718;21.786;2023-06-19T00:50:11;18.42;;;13.45;;
79646;SDS011;69119;41.718;21.786;2023-06-19T00:52:38;20.60;;;15.85;;
79646;SDS011;69119;41.718;21.786;2023-06-19T00:55:05;17.33;;;13.38;;
79646;SDS011;69119;41.718;21.786;2023-06-19T00:57:31;21.05;;;14.88;;
79646;SDS011;69119;41.718;21.786;2023-06-19T00:59:57;23.55;;;15.95;;
79646;SDS011;69119;41.718;21.786;2023-06-19T01:02:24;21.00;;;15.63;;
79646;SDS011;69119;41.718;21.786;2023-06-19T01:04:50;23.58;;;14.20;;
79646;SDS011;69119;41.718;21.786;2023-06-19T01:07:21;19.60;;;15.32;;
79646;SDS011;69119;41.718;21.786;2023-06-19T01:09:51;21.40;;;15.52;;
79646;SDS011;69119;41.718;21.786;2023-06-19T01:12:22;24.30;;;15.80;;
79646;SDS011;69119;41.718;21.786;2023-06-19T01:17:19;22.50;;;14.73;;
79646;SDS011;69119;41.718;21.786;2023-06-19T01:19:45;21.20;;;16.50;;
79646;SDS011;69119;41.718;21.786;2023-06-19T01:22:21;24.10;;;17.45;;
79646;SDS011;69119;41.718;21.786;2023-06-19T01:24:47;22.70;;;16.02;;
79646;SDS011;69119;41.718;21.786;2023-06-19T01:27:13;19.17;;;14.52;;
79646;SDS011;69119;41.718;21.786;2023-06-19T01:29:40;25.20;;;16.42;;
79646;SDS011;69119;41.718;21.786;2023-06-19T01:32:08;21.67;;;14.25;;
79646;SDS011;69119;41.718;21.786;2023-06-19T01:34:36;22.65;;;15.85;;
79646;SDS011;69119;41.718;21.786;2023-06-19T01:37:02;23.95;;;16.45;;
79646;SDS011;69119;41.718;21.786;2023-06-19T01:39:30;24.23;;;15.93;;
79646;SDS011;69119;41.718;21.786;2023-06-19T01:41:57;23.80;;;16.83;;
79646;SDS011;69119;41.718;21.786;2023-06-19T01:44:24;22.67;;;16.85;;
79646;SDS011;69119;41.718;21.786;2023-06-19T01:46:51;25.00;;;15.65;;
79646;SDS011;69119;41.718;21.786;2023-06-19T01:49:17;21.98;;;17.27;;
79646;SDS011;69119;41.718;21.786;2023-06-19T01:51:43;22.38;;;17.48;;
79646;SDS011;69119;41.718;21.786;2023-06-19T01:54:10;21.00;;;14.82;;
79646;SDS011;69119;41.718;21.786;2023-06-19T01:56:36;22.65;;;15.48;;
79646;SDS011;69119;41.718;21.786;2023-06-19T01:59:02;24.55;;;15.55;;
79646;SDS011;69119;41.718;21.786;2023-06-19T02:01:28;23.60;;;16.55;;
79646;SDS011;69119;41.718;21.786;2023-06-19T02:03:54;21.42;;;16.52;;
79646;SDS011;69119;41.718;21.786;2023-06-19T02:06:20;22.35;;;16.83;;
79646;SDS011;69119;41.718;21.786;2023-06-19T02:08:47;24.95;;;16.08;;
79646;SDS011;69119;41.718;21.786;2023-06-19T02:11:13;23.27;;;16.85;;
79646;SDS011;69119;41.718;21.786;2023-06-19T02:13:39;20.85;;;14.90;;
79646;SDS011;69119;41.718;21.786;2023-06-19T02:16:05;21.33;;;15.73;;
79646;SDS011;69119;41.718;21.786;2023-06-19T02:18:31;24.73;;;17.23;;
79646;SDS011;69119;41.718;21.786;2023-06-19T02:20:57;29.67;;;16.67;;
79646;SDS011;69119;41.718;21.786;2023-06-19T02:23:24;26.42;;;17.13;;
79646;SDS011;69119;41.718;21.786;2023-06-19T02:28:16;20.92;;;14.80;;
79646;SDS011;69119;41.718;21.786;2023-06-19T02:30:42;20.80;;;15.40;;
79646;SDS011;69119;41.718;21.786;2023-06-19T02:33:08;19.25;;;15.07;;
79646;SDS011;69119;41.718;21.786;2023-06-19T02:35:34;20.42;;;14.48;;
79646;SDS011;69119;41.718;21.786;2023-06-19T02:38:00;19.77;;;13.18;;
79646;SDS011;69119;41.718;21.786;2023-06-19T02:40:26;19.95;;;13.45;;
79646;SDS011;69119;41.718;21.786;2023-06-19T02:42:52;19.70;;;13.85;;
79646;SDS011;69119;41.718;21.786;2023-06-19T02:45:18;18.33;;;15.35;;
79646;SDS011;69119;41.718;21.786;2023-06-19T02:47:44;18.38;;;13.60;;
79646;SDS011;69119;41.718;21.786;2023-06-19T02:50:11;17.77;;;13.70;;
79646;SDS011;69119;41.718;21.786;2023-06-19T02:52:37;20.02;;;12.77;;
79646;SDS011;69119;41.718;21.786;2023-06-19T02:55:03;19.33;;;13.88;;
79646;SDS011;69119;41.718;21.786;2023-06-19T02:57:29;19.48;;;14.13;;
79646;SDS011;69119;41.718;21.786;2023-06-19T02:59:55;19.00;;;15.38;;
79646;SDS011;69119;41.718;21.786;2023-06-19T03:02:21;21.27;;;14.60;;
79646;SDS011;69119;41.718;21.786;2023-06-19T03:04:47;20.20;;;13.52;;
79646;SDS011;69119;41.718;21.786;2023-06-19T03:07:14;17.73;;;13.15;;
79646;SDS011;69119;41.718;21.786;2023-06-19T03:09:41;19.98;;;13.93;;
79646;SDS011;69119;41.718;21.786;2023-06-19T03:12:08;19.77;;;14.13;;
79646;SDS011;69119;41.718;21.786;2023-06-19T03:14:34;21.13;;;14.23;;
79646;SDS011;69119;41.718;21.786;2023-06-19T03:17:00;20.55;;;13.40;;
79646;SDS011;69119;41.718;21.786;2023-06-19T03:19:27;18.30;;;13.93;;
79646;SDS011;69119;41.718;21.786;2023-06-19T03:21:53;19.13;;;13.88;;
79646;SDS011;69119;41.718;21.786;2023-06-19T03:24:19;24.17;;;15.02;;
79646;SDS011;69119;41.718;21.786;2023-06-19T03:26:45;21.00;;;15.77;;
79646;SDS011;69119;41.718;21.786;2023-06-19T03:29:11;21.02;;;15.00;;
79646;SDS011;69119;41.718;21.786;2023-06-19T03:31:37;24.05;;;15.55;;
79646;SDS011;69119;41.718;21.786;2023-06-19T03:34:04;24.95;;;16.83;;
79646;SDS011;69119;41.718;21.786;2023-06-19T03:36:30;22.08;;;15.30;;
79646;SDS011;69119;41.718;21.786;2023-06-19T03:38:56;22.73;;;16.40;;
79646;SDS011;69119;41.718;21.786;2023-06-19T03:41:23;18.65;;;13.85;;
79646;SDS011;69119;41.718;21.786;2023-06-19T03:43:49;21.95;;;14.80;;
79646;SDS011;69119;41.718;21.786;2023-06-19T03:46:15;23.98;;;13.77;;
79646;SDS011;69119;41.718;21.786;2023-06-19T03:48:41;25.15;;;15.32;;
79646;SDS011;69119;41.718;21.786;2023-06-19T03:51:07;22.10;;;15.93;;
79646;SDS011;69119;41.718;21.786;2023-06-19T03:53:33;22.45;;;14.93;;
79646;SDS011;69119;41.718;21.786;2023-06-19T03:55:59;21.17;;;16.05;;
79646;SDS011;69119;41.718;21.786;2023-06-19T03:58:25;22.83;;;15.77;;
79646;SDS011;69119;41.718;21.786;2023-06-19T04:00:51;22.80;;;15.30;;
79646;SDS011;69119;41.718;21.786;2023-06-19T04:03:17;21.00;;;14.25;;
79646;SDS011;69119;41.718;21.786;2023-06-19T04:05:43;20.55;;;16.75;;
79646;SDS011;69119;41.718;21.786;2023-06-19T04:08:09;22.88;;;15.18;;
79646;SDS011;69119;41.718;21.786;2023-06-19T04:10:35;22.73;;;15.50;;
79646;SDS011;69119;41.718;21.786;2023-06-19T04:13:01;20.98;;;14.48;;
79646;SDS011;69119;41.718;21.786;2023-06-19T04:15:27;21.33;;;14.80;;
79646;SDS011;69119;41.718;21.786;2023-06-19T04:17:54;20.75;;;16.90;;
79646;SDS011;69119;41.718;21.786;2023-06-19T04:20:20;25.85;;;16.50;;
79646;SDS011;69119;41.718;21.786;2023-06-19T04:22:46;22.08;;;15.80;;
79646;SDS011;69119;41.718;21.786;2023-06-19T04:25:12;20.75;;;15.35;;
79646;SDS011;69119;41.718;21.786;2023-06-19T04:27:38;18.77;;;15.30;;
79646;SDS011;69119;41.718;21.786;2023-06-19T04:30:05;19.23;;;14.43;;
79646;SDS011;69119;41.718;21.786;2023-06-19T04:32:31;17.92;;;13.05;;
79646;SDS011;69119;41.718;21.786;2023-06-19T04:34:57;19.17;;;13.55;;
79646;SDS011;69119;41.718;21.786;2023-06-19T04:37:24;16.65;;;13.15;;
79646;SDS011;69119;41.718;21.786;2023-06-19T04:39:50;18.73;;;13.20;;
79646;SDS011;69119;41.718;21.786;2023-06-19T04:42:16;18.60;;;12.18;;
79646;SDS011;69119;41.718;21.786;2023-06-19T04:44:48;19.25;;;12.15;;
79646;SDS011;69119;41.718;21.786;2023-06-19T04:47:19;20.42;;;12.32;;
79646;SDS011;69119;41.718;21.786;2023-06-19T04:49:45;20.92;;;14.18;;
79646;SDS011;69119;41.718;21.786;2023-06-19T04:54:37;22.58;;;12.90;;
79646;SDS011;69119;41.718;21.786;2023-06-19T04:57:04;18.67;;;12.52;;
79646;SDS011;69119;41.718;21.786;2023-06-19T04:59:30;20.25;;;13.60;;
79646;SDS011;69119;41.718;21.786;2023-06-19T05:01:56;20.73;;;12.77;;
79646;SDS011;69119;41.718;21.786;2023-06-19T05:04:23;16.45;;;11.18;;
79646;SDS011;69119;41.718;21.786;2023-06-19T05:06:49;19.73;;;12.73;;
79646;SDS011;69119;41.718;21.786;2023-06-19T05:09:15;21.80;;;12.32;;
79646;SDS011;69119;41.718;21.786;2023-06-19T05:14:08;18.42;;;11.85;;
79646;SDS011;69119;41.718;21.786;2023-06-19T05:19:00;18.80;;;11.52;;
79646;SDS011;69119;41.718;21.786;2023-06-19T05:23:52;14.63;;;10.93;;
79646;SDS011;69119;41.718;21.786;2023-06-19T05:26:18;17.40;;;11.38;;
79646;SDS011;69119;41.718;21.786;2023-06-19T05:28:45;15.75;;;11.27;;
79646;SDS011;69119;41.718;21.786;2023-06-19T05:31:11;14.23;;;9.80;;
79646;SDS011;69119;41.718;21.786;2023-06-19T05:36:03;13.63;;;10.32;;
79646;SDS011;69119;41.718;21.786;2023-06-19T05:38:30;12.68;;;9.80;;
79646;SDS011;69119;41.718;21.786;2023-06-19T05:40:56;15.05;;;9.80;;
79646;SDS011;69119;41.718;21.786;2023-06-19T05:43:22;16.65;;;9.63;;
79646;SDS011;69119;41.718;21.786;2023-06-19T05:45:49;13.57;;;8.75;;
79646;SDS011;69119;41.718;21.786;2023-06-19T05:48:16;13.05;;;8.95;;
79646;SDS011;69119;41.718;21.786;2023-06-19T05:53:08;14.60;;;9.88;;
79646;SDS011;69119;41.718;21.786;2023-06-19T05:58:00;12.13;;;8.45;;
79646;SDS011;69119;41.718;21.786;2023-06-19T06:00:26;10.57;;;8.18;;
79646;SDS011;69119;41.718;21.786;2023-06-19T06:02:52;13.40;;;8.63;;
79646;SDS011;69119;41.718;21.786;2023-06-19T06:05:19;13.80;;;8.55;;
79646;SDS011;69119;41.718;21.786;2023-06-19T06:07:46;10.77;;;7.63;;
79646;SDS011;69119;41.718;21.786;2023-06-19T06:10:13;14.02;;;9.02;;
79646;SDS011;69119;41.718;21.786;2023-06-19T06:12:42;12.27;;;8.77;;
79646;SDS011;69119;41.718;21.786;2023-06-19T06:15:09;12.55;;;7.75;;
79646;SDS011;69119;41.718;21.786;2023-06-19T06:17:36;9.95;;;7.30;;
79646;SDS011;69119;41.718;21.786;2023-06-19T06:20:02;10.45;;;7.80;;
79646;SDS011;69119;41.718;21.786;2023-06-19T06:22:38;10.27;;;7.43;;
79646;SDS011;69119;41.718;21.786;2023-06-19T06:25:04;11.05;;;7.25;;
79646;SDS011;69119;41.718;21.786;2023-06-19T06:27:31;10.95;;;7.05;;
79646;SDS011;69119;41.718;21.786;2023-06-19T06:29:57;11.27;;;7.88;;
79646;SDS011;69119;41.718;21.786;2023-06-19T06:32:23;13.40;;;7.93;;
79646;SDS011;69119;41.718;21.786;2023-06-19T06:34:49;11.00;;;7.13;;
79646;SDS011;69119;41.718;21.786;2023-06-19T06:37:15;9.57;;;7.25;;
79646;SDS011;69119;41.718;21.786;2023-06-19T06:39:47;10.05;;;6.88;;
79646;SDS011;69119;41.718;21.786;2023-06-19T06:42:14;11.40;;;7.90;;
79646;SDS011;69119;41.718;21.786;2023-06-19T06:44:40;13.98;;;7.70;;
79646;SDS011;69119;41.718;21.786;2023-06-19T06:47:06;9.35;;;6.70;;
79646;SDS011;69119;41.718;21.786;2023-06-19T06:49:32;10.57;;;7.90;;
79646;SDS011;69119;41.718;21.786;2023-06-19T06:51:58;16.52;;;7.72;;
79646;SDS011;69119;41.718;21.786;2023-06-19T06:54:26;10.20;;;7.78;;
79646;SDS011;69119;41.718;21.786;2023-06-19T06:56:52;11.18;;;7.05;;
79646;SDS011;69119;41.718;21.786;2023-06-19T06:59:21;11.52;;;8.43;;
79646;SDS011;69119;41.718;21.786;2023-06-19T07:01:48;12.35;;;7.38;;
79646;SDS011;69119;41.718;21.786;2023-06-19T07:04:14;10.60;;;7.40;;
79646;SDS011;69119;41.718;21.786;2023-06-19T07:06:40;9.77;;;7.45;;
79646;SDS011;69119;41.718;21.786;2023-06-19T07:09:06;11.15;;;6.30;;
79646;SDS011;69119;41.718;21.786;2023-06-19T07:11:32;10.43;;;7.32;;
79646;SDS011;69119;41.718;21.786;2023-06-19T07:13:58;12.35;;;7.50;;
79646;SDS011;69119;41.718;21.786;2023-06-19T07:16:24;9.95;;;7.03;;
79646;SDS011;69119;41.718;21.786;2023-06-19T07:18:50;14.40;;;7.50;;
79646;SDS011;69119;41.718;21.786;2023-06-19T07:21:16;13.05;;;7.25;;
79646;SDS011;69119;41.718;21.786;2023-06-19T07:23:43;13.13;;;7.15;;
79646;SDS011;69119;41.718;21.786;2023-06-19T07:26:13;8.63;;;6.70;;
79646;SDS011;69119;41.718;21.786;2023-06-19T07:28:39;10.73;;;5.72;;
79646;SDS011;69119;41.718;21.786;2023-06-19T07:31:05;9.93;;;7.40;;
79646;SDS011;69119;41.718;21.786;2023-06-19T07:33:31;10.15;;;6.22;;
79646;SDS011;69119;41.718;21.786;2023-06-19T07:35:57;10.65;;;7.30;;
79646;SDS011;69119;41.718;21.786;2023-06-19T07:38:23;9.98;;;5.95;;
79646;SDS011;69119;41.718;21.786;2023-06-19T07:40:49;9.10;;;5.82;;
79646;SDS011;69119;41.718;21.786;2023-06-19T07:43:16;9.15;;;5.50;;
79646;SDS011;69119;41.718;21.786;2023-06-19T07:45:42;10.45;;;6.72;;
79646;SDS011;69119;41.718;21.786;2023-06-19T07:48:08;10.35;;;6.13;;
79646;SDS011;69119;41.718;21.786;2023-06-19T07:50:34;10.05;;;5.93;;
79646;SDS011;69119;41.718;21.786;2023-06-19T07:53:03;9.23;;;6.28;;
79646;SDS011;69119;41.718;21.786;2023-06-19T07:55:29;8.80;;;5.80;;
79646;SDS011;69119;41.718;21.786;2023-06-19T07:57:56;9.07;;;6.50;;
79646;SDS011;69119;41.718;21.786;2023-06-19T08:00:23;9.13;;;5.78;;
79646;SDS011;69119;41.718;21.786;2023-06-19T08:02:49;8.25;;;6.00;;
79646;SDS011;69119;41.718;21.786;2023-06-19T08:05:15;8.05;;;5.50;;
79646;SDS011;69119;41.718;21.786;2023-06-19T08:07:42;9.93;;;5.47;;
79646;SDS011;69119;41.718;21.786;2023-06-19T08:10:08;11.27;;;8.60;;
79646;SDS011;69119;41.718;21.786;2023-06-19T08:12:34;9.18;;;5.70;;
79646;SDS011;69119;41.718;21.786;2023-06-19T08:15:00;9.90;;;5.55;;
79646;SDS011;69119;41.718;21.786;2023-06-19T08:17:26;9.05;;;6.50;;
79646;SDS011;69119;41.718;21.786;2023-06-19T08:19:52;9.30;;;5.50;;
79646;SDS011;69119;41.718;21.786;2023-06-19T08:22:18;8.70;;;6.03;;
79646;SDS011;69119;41.718;21.786;2023-06-19T08:24:44;9.02;;;5.40;;
79646;SDS011;69119;41.718;21.786;2023-06-19T08:27:10;8.68;;;4.95;;
79646;SDS011;69119;41.718;21.786;2023-06-19T08:29:36;11.32;;;5.88;;
79646;SDS011;69119;41.718;21.786;2023-06-19T08:32:02;9.40;;;6.30;;
79646;SDS011;69119;41.718;21.786;2023-06-19T08:34:29;9.20;;;7.57;;
79646;SDS011;69119;41.718;21.786;2023-06-19T08:36:55;9.15;;;5.80;;
79646;SDS011;69119;41.718;21.786;2023-06-19T08:39:21;10.95;;;5.57;;
79646;SDS011;69119;41.718;21.786;2023-06-19T08:41:47;11.55;;;5.50;;
79646;SDS011;69119;41.718;21.786;2023-06-19T08:44:13;11.52;;;7.75;;
79646;SDS011;69119;41.718;21.786;2023-06-19T08:46:39;6.57;;;3.45;;
79646;SDS011;69119;41.718;21.786;2023-06-19T08:49:07;8.55;;;4.50;;
79646;SDS011;69119;41.718;21.786;2023-06-19T08:51:35;8.65;;;4.68;;
79646;SDS011;69119;41.718;21.786;2023-06-19T08:54:02;7.45;;;4.32;;
79646;SDS011;69119;41.718;21.786;2023-06-19T08:56:29;8.35;;;4.53;;
79646;SDS011;69119;41.718;21.786;2023-06-19T08:59:08;9.35;;;5.15;;
79646;SDS011;69119;41.718;21.786;2023-06-19T09:01:35;7.07;;;4.07;;
79646;SDS011;69119;41.718;21.786;2023-06-19T09:04:07;6.13;;;3.20;;
79646;SDS011;69119;41.718;21.786;2023-06-19T09:06:33;8.48;;;4.55;;
79646;SDS011;69119;41.718;21.786;2023-06-19T09:09:04;9.93;;;4.40;;
79646;SDS011;69119;41.718;21.786;2023-06-19T09:11:35;8.38;;;4.65;;
79646;SDS011;69119;41.718;21.786;2023-06-19T09:14:05;8.18;;;5.03;;
79646;SDS011;69119;41.718;21.786;2023-06-19T09:16:40;8.70;;;4.55;;
79646;SDS011;69119;41.718;21.786;2023-06-19T09:19:07;7.78;;;4.25;;
79646;SDS011;69119;41.718;21.786;2023-06-19T09:21:36;7.18;;;4.60;;
79646;SDS011;69119;41.718;21.786;2023-06-19T09:24:04;10.88;;;5.40;;
79646;SDS011;69119;41.718;21.786;2023-06-19T09:26:30;7.90;;;4.85;;
79646;SDS011;69119;41.718;21.786;2023-06-19T09:28:56;9.40;;;5.07;;
79646;SDS011;69119;41.718;21.786;2023-06-19T09:31:31;10.32;;;5.40;;
79646;SDS011;69119;41.718;21.786;2023-06-19T09:33:57;9.45;;;4.78;;
79646;SDS011;69119;41.718;21.786;2023-06-19T09:36:23;10.35;;;4.85;;
79646;SDS011;69119;41.718;21.786;2023-06-19T09:38:51;8.48;;;4.35;;
79646;SDS011;69119;41.718;21.786;2023-06-19T09:41:20;8.60;;;5.57;;
79646;SDS011;69119;41.718;21.786;2023-06-19T09:43:47;8.45;;;3.85;;
79646;SDS011;69119;41.718;21.786;2023-06-19T09:46:14;9.18;;;4.55;;
79646;SDS011;69119;41.718;21.786;2023-06-19T09:48:44;7.45;;;3.35;;
79646;SDS011;69119;41.718;21.786;2023-06-19T09:51:13;9.27;;;4.80;;
79646;SDS011;69119;41.718;21.786;2023-06-19T09:53:46;7.40;;;4.82;;
79646;SDS011;69119;41.718;21.786;2023-06-19T09:56:13;8.23;;;4.07;;
79646;SDS011;69119;41.718;21.786;2023-06-19T09:58:40;9.23;;;4.13;;
79646;SDS011;69119;41.718;21.786;2023-06-19T10:01:08;11.30;;;5.93;;
79646;SDS011;69119;41.718;21.786;2023-06-19T10:03:35;11.43;;;5.50;;
79646;SDS011;69119;41.718;21.786;2023-06-19T10:06:02;10.13;;;4.78;;
79646;SDS011;69119;41.718;21.786;2023-06-19T10:08:32;10.60;;;5.43;;
79646;SDS011;69119;41.718;21.786;2023-06-19T10:11:04;8.23;;;5.32;;
79646;SDS011;69119;41.718;21.786;2023-06-19T10:13:31;10.60;;;5.32;;
79646;SDS011;69119;41.718;21.786;2023-06-19T10:15:58;8.93;;;4.82;;
79646;SDS011;69119;41.718;21.786;2023-06-19T10:18:24;7.85;;;3.80;;
79646;SDS011;69119;41.718;21.786;2023-06-19T10:20:51;7.10;;;3.30;;
79646;SDS011;69119;41.718;21.786;2023-06-19T10:23:19;8.35;;;5.00;;
79646;SDS011;69119;41.718;21.786;2023-06-19T10:25:47;7.40;;;4.18;;
79646;SDS011;69119;41.718;21.786;2023-06-19T10:28:17;6.90;;;3.38;;
79646;SDS011;69119;41.718;21.786;2023-06-19T10:30:44;9.93;;;3.72;;
79646;SDS011;69119;41.718;21.786;2023-06-19T10:33:10;7.03;;;3.95;;
79646;SDS011;69119;41.718;21.786;2023-06-19T10:35:37;7.53;;;4.38;;
79646;SDS011;69119;41.718;21.786;2023-06-19T10:38:04;9.63;;;5.22;;
79646;SDS011;69119;41.718;21.786;2023-06-19T10:40:30;7.78;;;4.70;;
79646;SDS011;69119;41.718;21.786;2023-06-19T10:42:56;8.13;;;5.05;;
79646;SDS011;69119;41.718;21.786;2023-06-19T10:45:23;11.10;;;3.78;;
79646;SDS011;69119;41.718;21.786;2023-06-19T10:47:53;8.48;;;4.60;;
79646;SDS011;69119;41.718;21.786;2023-06-19T10:50:20;6.38;;;2.80;;
79646;SDS011;69119;41.718;21.786;2023-06-19T10:52:46;7.75;;;4.38;;
79646;SDS011;69119;41.718;21.786;2023-06-19T10:55:14;8.05;;;4.93;;
79646;SDS011;69119;41.718;21.786;2023-06-19T10:57:41;8.55;;;4.20;;
79646;SDS011;69119;41.718;21.786;2023-06-19T11:00:10;8.40;;;5.18;;
79646;SDS011;69119;41.718;21.786;2023-06-19T11:02:42;7.70;;;3.75;;
79646;SDS011;69119;41.718;21.786;2023-06-19T11:05:12;7.65;;;4.38;;
79646;SDS011;69119;41.718;21.786;2023-06-19T11:07:38;8.15;;;4.43;;
79646;SDS011;69119;41.718;21.786;2023-06-19T11:10:05;10.45;;;5.80;;
79646;SDS011;69119;41.718;21.786;2023-06-19T11:12:31;8.65;;;5.25;;
79646;SDS011;69119;41.718;21.786;2023-06-19T11:14:59;9.65;;;3.65;;
79646;SDS011;69119;41.718;21.786;2023-06-19T11:17:32;8.48;;;4.47;;
79646;SDS011;69119;41.718;21.786;2023-06-19T11:19:58;8.45;;;5.40;;
79646;SDS011;69119;41.718;21.786;2023-06-19T11:22:35;9.70;;;6.18;;
79646;SDS011;69119;41.718;21.786;2023-06-19T11:25:02;9.93;;;5.25;;
79646;SDS011;69119;41.718;21.786;2023-06-19T11:27:30;7.07;;;3.40;;
79646;SDS011;69119;41.718;21.786;2023-06-19T11:29:56;9.82;;;5.20;;
79646;SDS011;69119;41.718;21.786;2023-06-19T11:32:33;9.38;;;5.32;;
79646;SDS011;69119;41.718;21.786;2023-06-19T11:35:07;8.43;;;5.95;;
79646;SDS011;69119;41.718;21.786;2023-06-19T11:37:34;9.30;;;5.20;;
79646;SDS011;69119;41.718;21.786;2023-06-19T11:40:00;8.38;;;4.78;;
79646;SDS011;69119;41.718;21.786;2023-06-19T11:42:43;8.82;;;5.07;;
79646;SDS011;69119;41.718;21.786;2023-06-19T11:45:09;9.43;;;4.25;;
79646;SDS011;69119;41.718;21.786;2023-06-19T11:47:35;8.68;;;4.72;;
79646;SDS011;69119;41.718;21.786;2023-06-19T11:50:03;8.75;;;4.55;;
79646;SDS011;69119;41.718;21.786;2023-06-19T11:52:29;9.43;;;5.47;;
79646;SDS011;69119;41.718;21.786;2023-06-19T11:54:56;8.68;;;4.50;;
79646;SDS011;69119;41.718;21.786;2023-06-19T11:57:22;6.90;;;3.88;;
79646;SDS011;69119;41.718;21.786;2023-06-19T11:59:48;8.07;;;5.03;;
79646;SDS011;69119;41.718;21.786;2023-06-19T12:02:14;9.07;;;5.65;;
79646;SDS011;69119;41.718;21.786;2023-06-19T12:04:40;7.82;;;5.47;;
79646;SDS011;69119;41.718;21.786;2023-06-19T12:07:06;9.27;;;5.25;;
79646;SDS011;69119;41.718;21.786;2023-06-19T12:09:33;9.35;;;5.20;;
79646;SDS011;69119;41.718;21.786;2023-06-19T12:11:59;9.57;;;5.47;;
79646;SDS011;69119;41.718;21.786;2023-06-19T12:14:25;9.57;;;6.07;;
79646;SDS011;69119;41.718;21.786;2023-06-19T12:16:52;9.13;;;5.30;;
79646;SDS011;69119;41.718;21.786;2023-06-19T12:19:18;8.23;;;4.68;;
79646;SDS011;69119;41.718;21.786;2023-06-19T12:21:44;6.70;;;4.07;;
79646;SDS011;69119;41.718;21.786;2023-06-19T12:24:10;10.43;;;5.07;;
79646;SDS011;69119;41.718;21.786;2023-06-19T12:26:37;9.25;;;6.45;;
79646;SDS011;69119;41.718;21.786;2023-06-19T12:29:03;8.95;;;5.20;;
79646;SDS011;69119;41.718;21.786;2023-06-19T12:31:30;8.57;;;5.50;;
79646;SDS011;69119;41.718;21.786;2023-06-19T12:33:57;9.60;;;5.68;;
79646;SDS011;69119;41.718;21.786;2023-06-19T12:36:23;7.80;;;5.65;;
79646;SDS011;69119;41.718;21.786;2023-06-19T12:38:49;8.75;;;5.63;;
79646;SDS011;69119;41.718;21.786;2023-06-19T12:41:15;7.53;;;4.07;;
79646;SDS011;69119;41.718;21.786;2023-06-19T12:43:41;10.30;;;5.18;;
79646;SDS011;69119;41.718;21.786;2023-06-19T12:46:07;8.10;;;4.70;;
79646;SDS011;69119;41.718;21.786;2023-06-19T12:48:33;10.95;;;5.43;;
79646;SDS011;69119;41.718;21.786;2023-06-19T12:51:00;11.95;;;6.03;;
79646;SDS011;69119;41.718;21.786;2023-06-19T12:53:26;8.50;;;5.32;;
79646;SDS011;69119;41.718;21.786;2023-06-19T12:55:56;7.55;;;4.75;;
79646;SDS011;69119;41.718;21.786;2023-06-19T12:58:22;8.57;;;4.88;;
79646;SDS011;69119;41.718;21.786;2023-06-19T13:00:48;9.23;;;4.78;;
79646;SDS011;69119;41.718;21.786;2023-06-19T13:03:14;10.63;;;5.97;;
79646;SDS011;69119;41.718;21.786;2023-06-19T13:05:40;11.27;;;6.80;;
79646;SDS011;69119;41.718;21.786;2023-06-19T13:08:06;10.32;;;5.75;;
79646;SDS011;69119;41.718;21.786;2023-06-19T13:10:32;8.80;;;7.00;;
79646;SDS011;69119;41.718;21.786;2023-06-19T13:12:58;10.27;;;6.18;;
79646;SDS011;69119;41.718;21.786;2023-06-19T13:15:24;8.20;;;4.63;;
79646;SDS011;69119;41.718;21.786;2023-06-19T13:17:52;7.82;;;4.55;;
79646;SDS011;69119;41.718;21.786;2023-06-19T13:20:18;9.73;;;6.43;;
79646;SDS011;69119;41.718;21.786;2023-06-19T13:22:45;8.98;;;3.78;;
79646;SDS011;69119;41.718;21.786;2023-06-19T13:25:11;11.23;;;7.18;;
79646;SDS011;69119;41.718;21.786;2023-06-19T13:27:37;11.13;;;6.93;;
79646;SDS011;69119;41.718;21.786;2023-06-19T13:30:03;7.55;;;4.43;;
79646;SDS011;69119;41.718;21.786;2023-06-19T13:32:29;9.57;;;6.00;;
79646;SDS011;69119;41.718;21.786;2023-06-19T13:34:55;9.13;;;5.57;;
79646;SDS011;69119;41.718;21.786;2023-06-19T13:37:21;9.43;;;5.97;;
79646;SDS011;69119;41.718;21.786;2023-06-19T13:39:49;12.23;;;7.03;;
79646;SDS011;69119;41.718;21.786;2023-06-19T13:42:15;10.18;;;6.32;;
79646;SDS011;69119;41.718;21.786;2023-06-19T13:44:41;9.07;;;5.32;;
79646;SDS011;69119;41.718;21.786;2023-06-19T13:47:07;9.85;;;6.20;;
79646;SDS011;69119;41.718;21.786;2023-06-19T13:49:33;8.05;;;4.43;;
79646;SDS011;69119;41.718;21.786;2023-06-19T13:51:59;7.45;;;4.97;;
79646;SDS011;69119;41.718;21.786;2023-06-19T13:54:25;7.70;;;5.28;;
79646;SDS011;69119;41.718;21.786;2023-06-19T13:56:51;8.77;;;4.90;;
79646;SDS011;69119;41.718;21.786;2023-06-19T13:59:18;8.70;;;4.15;;
79646;SDS011;69119;41.718;21.786;2023-06-19T14:01:44;7.78;;;4.43;;
79646;SDS011;69119;41.718;21.786;2023-06-19T14:04:10;9.52;;;5.53;;
79646;SDS011;69119;41.718;21.786;2023-06-19T14:06:37;7.35;;;4.18;;
79646;SDS011;69119;41.718;21.786;2023-06-19T14:09:03;7.53;;;4.32;;
79646;SDS011;69119;41.718;21.786;2023-06-19T14:11:29;7.53;;;4.28;;
79646;SDS011;69119;41.718;21.786;2023-06-19T14:13:57;8.77;;;5.80;;
79646;SDS011;69119;41.718;21.786;2023-06-19T14:16:23;10.82;;;5.00;;
79646;SDS011;69119;41.718;21.786;2023-06-19T14:18:49;8.45;;;5.63;;
79646;SDS011;69119;41.718;21.786;2023-06-19T14:21:15;8.63;;;4.63;;
79646;SDS011;69119;41.718;21.786;2023-06-19T14:23:42;11.48;;;5.72;;
79646;SDS011;69119;41.718;21.786;2023-06-19T14:26:10;8.35;;;5.15;;
79646;SDS011;69119;41.718;21.786;2023-06-19T14:28:36;7.95;;;4.85;;
79646;SDS011;69119;41.718;21.786;2023-06-19T14:31:03;7.80;;;5.25;;
79646;SDS011;69119;41.718;21.786;2023-06-19T14:33:29;8.82;;;5.40;;
79646;SDS011;69119;41.718;21.786;2023-06-19T14:35:57;9.23;;;5.03;;
79646;SDS011;69119;41.718;21.786;2023-06-19T14:38:24;7.13;;;3.50;;
79646;SDS011;69119;41.718;21.786;2023-06-19T14:40:53;8.52;;;4.50;;
79646;SDS011;69119;41.718;21.786;2023-06-19T14:43:19;9.00;;;5.43;;
79646;SDS011;69119;41.718;21.786;2023-06-19T14:45:45;7.93;;;5.30;;